Pagina principale
METAR-TAF:

METAR-TAF

Aeroporti :

Aeroporto di Milano-Malpensa

Milano, Italia

latitudine: 45-37N, longitudine: 008-44E, altezza: 234 m

Osservazione

Il bollettino è stato emesso 20 minuti fa, alle 04:50 UTC
Vento 8 kt da nord/nord-est
Temperature 9°C
Umidità 87%
Pressione 1011 hPa
Visibilità 10 km o più
Nuvoloso ad un'altezza di 5000 ft

METAR: LIMC 300450Z 02008KT 9999 BKN050 09/07 Q1011 NOSIG

Ora: 07:10 (05:10 UTC)

Previsione

Il bollettino è stato emesso 6 ore e 10 minuti fa, alle 23:00 UTC
Previsione valida dal 30 alle 00 UTC al 31 alle 06 UTC
Vento 5 kt da direzioni variabili
Visibilità 10 km o più
Nubi sparse ad un'altezza di 4000 ft
Temporaneamente
dal 30 alle 00 UTC al 30 alle 18 UTC
Visibilità: 4000 m
rovesci di pioggia

TAF: LIMC 292300Z 3000/3106 VRB05KT 9999 SCT040 TEMPO 3000/3018 4000 SHRA

Osservazioni e previsioni meteorologiche di più di 4000 aeroporti (messaggi METAR e TAF).

Le stazioni disponibili sono rappresentate dai dischi gialli e rossi sulla carta.

Puntare il mouse per vedere il nome della stazione.

Clicca sopra per visualizzare le osservazioni e previsioni meteorologiche.

Per cambiare la mappa : fare clic sui pulsanti verdi con una croce nera per ingrandire, il pulsante verde con un trattino per diminuire, o sulla freccia verde per le mappe adiacenti.


METAR-TAF: